createdAt,value
2019-02-26T00:02:19.801Z,18.37
2019-02-26T00:04:49.101Z,18.82
2019-02-26T00:07:18.834Z,18.00
2019-02-26T00:09:46.321Z,17.37
2019-02-26T00:12:13.646Z,18.65
2019-02-26T00:14:43.051Z,18.25
2019-02-26T00:17:11.219Z,18.17
2019-02-26T00:19:38.857Z,17.80
2019-02-26T00:22:07.770Z,19.20
2019-02-26T00:24:35.317Z,19.10
2019-02-26T00:27:05.484Z,18.98
2019-02-26T00:29:32.988Z,19.62
2019-02-26T00:32:00.306Z,18.07
2019-02-26T00:34:27.614Z,19.50
2019-02-26T00:36:54.909Z,18.70
2019-02-26T00:39:23.211Z,17.80
2019-02-26T00:41:53.217Z,17.60
2019-02-26T00:44:21.199Z,17.37
2019-02-26T00:46:49.084Z,19.92
2019-02-26T00:49:16.361Z,17.35
2019-02-26T00:51:46.024Z,18.15
2019-02-26T00:54:12.642Z,20.12
2019-02-26T00:56:41.117Z,17.50
2019-02-26T00:59:08.463Z,18.32
2019-02-26T01:01:35.767Z,19.40
2019-02-26T01:04:03.103Z,18.65
2019-02-26T01:06:31.245Z,19.60
2019-02-26T01:09:01.142Z,19.98
2019-02-26T01:11:30.128Z,18.45
2019-02-26T01:13:57.742Z,20.97
2019-02-26T01:16:26.239Z,20.55
2019-02-26T01:18:53.547Z,19.07
2019-02-26T01:21:24.414Z,19.40
2019-02-26T01:23:49.802Z,20.12
2019-02-26T01:26:17.098Z,18.80
2019-02-26T01:28:48.325Z,19.02
2019-02-26T01:31:13.373Z,21.10
2019-02-26T01:33:40.656Z,21.27
2019-02-26T01:36:07.984Z,22.98
2019-02-26T01:38:37.431Z,20.92
2019-02-26T01:41:04.258Z,19.37
2019-02-26T01:43:31.563Z,19.57
2019-02-26T01:45:58.863Z,19.40
2019-02-26T01:48:26.178Z,21.17
2019-02-26T01:50:54.432Z,20.72
2019-02-26T01:53:23.710Z,22.17
2019-02-26T01:55:51.016Z,22.02
2019-02-26T01:58:18.309Z,20.80
2019-02-26T02:00:45.645Z,19.70
2019-02-26T02:03:12.931Z,20.72
2019-02-26T02:05:40.261Z,21.35
2019-02-26T02:08:11.005Z,21.10
2019-02-26T02:10:36.504Z,23.38
2019-02-26T02:13:04.781Z,22.75
2019-02-26T02:15:32.762Z,22.62
2019-02-26T02:18:01.766Z,22.30
2019-02-26T02:20:29.059Z,20.75
2019-02-26T02:22:58.100Z,22.37
2019-02-26T02:25:28.950Z,24.10
2019-02-26T02:27:55.033Z,22.93
2019-02-26T02:30:30.233Z,21.50
2019-02-26T02:32:55.043Z,23.60
2019-02-26T02:35:21.133Z,21.50
2019-02-26T02:37:50.791Z,24.70
2019-02-26T02:40:17.452Z,24.30
2019-02-26T02:42:46.498Z,23.57
2019-02-26T02:45:16.778Z,22.07
2019-02-26T02:47:42.671Z,21.93
2019-02-26T02:50:12.632Z,22.07
2019-02-26T02:52:40.153Z,22.37
2019-02-26T02:55:10.536Z,20.82
2019-02-26T02:57:36.978Z,21.60
2019-02-26T03:00:08.389Z,23.15
2019-02-26T03:02:38.056Z,21.45
2019-02-26T03:05:04.489Z,20.97
2019-02-26T03:07:31.791Z,20.77
2019-02-26T03:10:03.968Z,21.42
2019-02-26T03:12:29.697Z,21.05
2019-02-26T03:14:59.994Z,21.80
2019-02-26T03:17:25.929Z,22.40
2019-02-26T03:19:55.862Z,22.65
2019-02-26T03:22:22.186Z,19.65
2019-02-26T03:24:51.341Z,21.05
2019-02-26T03:27:18.444Z,20.43
2019-02-26T03:29:47.342Z,24.85
2019-02-26T03:32:14.675Z,22.55
2019-02-26T03:34:42.014Z,22.00
2019-02-26T03:37:10.996Z,24.40
2019-02-26T03:39:38.457Z,25.57
2019-02-26T03:42:05.770Z,24.07
2019-02-26T03:44:33.069Z,24.90
2019-02-26T03:47:00.384Z,25.43
2019-02-26T03:49:27.682Z,24.43
2019-02-26T03:51:59.098Z,23.75
2019-02-26T03:54:23.941Z,23.70
2019-02-26T03:56:51.266Z,26.02
2019-02-26T03:59:18.550Z,24.25
2019-02-26T04:01:45.870Z,24.52
2019-02-26T04:04:13.171Z,23.07
2019-02-26T04:06:41.136Z,25.00
2019-02-26T04:09:11.075Z,23.32
2019-02-26T04:11:39.622Z,22.02
2019-02-26T04:14:12.108Z,23.67
2019-02-26T04:16:37.969Z,23.27
2019-02-26T04:19:05.899Z,23.40
2019-02-26T04:21:52.292Z,23.35
2019-02-26T04:24:19.582Z,23.18
2019-02-26T04:26:48.525Z,23.07
2019-02-26T04:29:17.454Z,25.32
2019-02-26T04:31:57.610Z,24.32
2019-02-26T04:34:26.036Z,23.60
2019-02-26T04:37:04.752Z,23.83
2019-02-26T04:39:34.869Z,23.67
2019-02-26T04:42:05.538Z,22.67
2019-02-26T04:44:54.516Z,26.40
2019-02-26T04:47:23.587Z,24.90
2019-02-26T04:49:50.127Z,23.18
2019-02-26T04:52:17.585Z,24.55
2019-02-26T04:54:44.927Z,24.15
2019-02-26T04:57:12.241Z,25.23
2019-02-26T04:59:41.309Z,24.35
2019-02-26T05:02:08.470Z,24.55
2019-02-26T05:04:36.842Z,24.63
2019-02-26T05:07:07.480Z,25.17
2019-02-26T05:09:35.396Z,25.62
2019-02-26T05:12:02.690Z,24.40
2019-02-26T05:14:29.947Z,23.35
2019-02-26T05:16:57.265Z,21.95
2019-02-26T05:19:24.586Z,24.12
2019-02-26T05:21:53.600Z,24.43
2019-02-26T05:24:21.817Z,25.85
2019-02-26T05:26:49.787Z,26.33
2019-02-26T05:29:17.101Z,29.55
2019-02-26T05:31:44.405Z,29.90
2019-02-26T05:34:12.412Z,25.27
2019-02-26T05:36:43.523Z,25.70
2019-02-26T05:39:09.619Z,25.02
2019-02-26T05:41:36.936Z,24.67
2019-02-26T05:44:07.527Z,27.85
2019-02-26T05:46:33.194Z,24.72
2019-02-26T05:49:00.566Z,24.00
2019-02-26T05:51:29.869Z,23.92
2019-02-26T05:54:01.306Z,24.30
2019-02-26T05:56:25.779Z,27.30
2019-02-26T05:58:53.110Z,27.98
2019-02-26T06:01:22.497Z,29.95
2019-02-26T06:03:51.756Z,26.52
2019-02-26T06:06:18.314Z,43.80
2019-02-26T06:08:45.636Z,26.70
2019-02-26T06:11:12.920Z,25.40
2019-02-26T06:13:41.162Z,27.77
2019-02-26T06:16:09.193Z,26.93
2019-02-26T06:18:36.501Z,28.67
2019-02-26T06:21:03.850Z,27.65
2019-02-26T06:23:33.843Z,25.20
2019-02-26T06:26:02.289Z,24.77
2019-02-26T06:28:29.101Z,24.92
2019-02-26T06:30:56.397Z,25.48
2019-02-26T06:33:23.718Z,25.90
2019-02-26T06:35:51.010Z,23.83
2019-02-26T06:38:18.307Z,26.37
2019-02-26T06:40:47.123Z,25.70
2019-02-26T06:43:14.586Z,23.83
2019-02-26T06:45:43.590Z,32.15
2019-02-26T06:48:14.699Z,30.30
2019-02-26T06:50:41.603Z,31.37
2019-02-26T06:53:10.939Z,24.32
2019-02-26T06:55:37.705Z,27.10
2019-02-26T06:58:17.886Z,28.73
2019-02-26T07:00:46.392Z,26.35
2019-02-26T07:03:14.197Z,27.65
2019-02-26T07:05:42.045Z,27.20
2019-02-26T07:08:10.468Z,27.73
2019-02-26T07:10:37.775Z,26.33
2019-02-26T07:13:06.971Z,35.25
2019-02-26T07:15:34.014Z,26.60
2019-02-26T07:18:04.418Z,25.48
2019-02-26T07:20:34.021Z,24.90
2019-02-26T07:22:59.254Z,25.08
2019-02-26T07:25:26.578Z,24.65
2019-02-26T07:27:55.841Z,26.40
2019-02-26T07:30:23.010Z,25.52
2019-02-26T07:32:50.339Z,26.90
2019-02-26T07:35:17.646Z,25.23
2019-02-26T07:37:45.045Z,23.07
2019-02-26T07:40:15.232Z,25.15
2019-02-26T07:42:41.953Z,32.42
2019-02-26T07:45:15.122Z,25.32
2019-02-26T07:47:39.875Z,26.05
2019-02-26T07:50:12.286Z,28.15
2019-02-26T07:52:39.557Z,27.05
2019-02-26T07:55:12.016Z,27.27
2019-02-26T07:57:40.457Z,33.02
2019-02-26T08:00:09.645Z,25.15
2019-02-26T08:02:37.355Z,30.75
2019-02-26T08:05:04.834Z,36.65
2019-02-26T08:07:32.135Z,27.75
2019-02-26T08:09:59.448Z,34.98
2019-02-26T08:12:26.772Z,40.25
2019-02-26T08:14:54.091Z,32.33
2019-02-26T08:17:21.386Z,28.55
2019-02-26T08:19:49.333Z,28.02
2019-02-26T08:22:16.802Z,24.75
2019-02-26T08:24:46.075Z,28.45
2019-02-26T08:27:13.536Z,26.75
2019-02-26T08:29:40.954Z,26.40
2019-02-26T08:32:08.276Z,26.73
2019-02-26T08:34:39.203Z,29.70
2019-02-26T08:37:04.513Z,22.62
2019-02-26T08:39:31.840Z,24.70
2019-02-26T08:42:03.007Z,23.47
2019-02-26T08:44:30.307Z,28.92
2019-02-26T08:46:57.593Z,25.35
2019-02-26T08:49:24.919Z,21.30
2019-02-26T08:51:52.219Z,28.47
2019-02-26T08:54:21.111Z,21.12
2019-02-26T08:56:48.478Z,25.08
2019-02-26T08:59:17.651Z,28.77
2019-02-26T09:01:44.763Z,30.35
2019-02-26T09:04:12.737Z,21.12
2019-02-26T09:06:41.034Z,25.10
2019-02-26T09:09:08.323Z,25.37
2019-02-26T09:11:36.977Z,30.43
2019-02-26T09:14:06.586Z,80.72
2019-02-26T09:16:33.551Z,87.53
2019-02-26T09:19:00.841Z,62.85
2019-02-26T09:21:28.129Z,57.40
2019-02-26T09:23:57.074Z,37.85
2019-02-26T09:26:24.400Z,32.13
2019-02-26T09:28:52.384Z,48.45
2019-02-26T09:31:20.654Z,40.17
2019-02-26T09:33:47.975Z,34.10
2019-02-26T09:36:17.934Z,39.53
2019-02-26T09:38:44.986Z,35.35
2019-02-26T09:41:14.207Z,38.83
2019-02-26T09:43:43.280Z,35.55
2019-02-26T09:46:14.393Z,43.73
2019-02-26T09:48:41.098Z,25.88
2019-02-26T09:51:09.806Z,30.05
2019-02-26T09:53:37.973Z,23.30
2019-02-26T09:56:05.266Z,22.98
2019-02-26T09:58:32.558Z,23.98
2019-02-26T10:00:59.905Z,27.02
2019-02-26T10:03:29.164Z,27.37
2019-02-26T10:05:57.945Z,25.85
2019-02-26T10:08:27.226Z,26.57
2019-02-26T10:10:55.034Z,23.22
2019-02-26T10:13:25.011Z,20.65
2019-02-26T10:15:51.971Z,21.27
2019-02-26T10:18:21.007Z,22.62
2019-02-26T10:20:49.917Z,27.10
2019-02-26T10:23:19.218Z,21.10
2019-02-26T10:25:46.136Z,21.87
2019-02-26T10:28:14.204Z,31.20
2019-02-26T10:30:42.371Z,25.52
2019-02-26T10:33:09.694Z,19.25
2019-02-26T10:35:39.701Z,19.15
2019-02-26T10:38:08.249Z,21.07
2019-02-26T10:40:40.753Z,21.25
2019-02-26T10:43:03.951Z,20.88
2019-02-26T10:45:36.207Z,19.42
2019-02-26T10:48:01.697Z,21.35
2019-02-26T10:50:31.530Z,19.80
2019-02-26T10:53:06.532Z,21.93
2019-02-26T10:55:35.438Z,18.23
2019-02-26T10:57:58.387Z,21.37
2019-02-26T11:00:28.035Z,20.37
2019-02-26T11:02:54.540Z,22.05
2019-02-26T11:05:26.174Z,19.05
2019-02-26T11:07:53.193Z,21.45
2019-02-26T11:10:21.001Z,17.35
2019-02-26T11:12:50.538Z,21.48
2019-02-26T11:15:18.267Z,26.82
2019-02-26T11:17:46.122Z,15.20
2019-02-26T11:20:15.191Z,15.40
2019-02-26T11:22:44.726Z,18.65
2019-02-26T11:25:13.347Z,20.65
2019-02-26T11:27:43.501Z,17.80
2019-02-26T11:30:14.616Z,22.05
2019-02-26T11:32:42.289Z,17.32
2019-02-26T11:35:10.974Z,19.23
2019-02-26T11:37:38.286Z,20.40
2019-02-26T11:40:09.628Z,16.95
2019-02-26T11:42:36.936Z,19.12
2019-02-26T11:45:07.428Z,20.02
2019-02-26T11:47:36.756Z,20.23
2019-02-26T11:50:06.950Z,17.52
2019-02-26T11:52:36.434Z,18.75
2019-02-26T11:55:05.951Z,22.02
2019-02-26T11:57:34.857Z,20.02
2019-02-26T12:00:01.986Z,12.80
2019-02-26T12:02:33.816Z,18.60
2019-02-26T12:05:00.038Z,16.07
2019-02-26T12:07:29.774Z,15.43
2019-02-26T12:09:57.862Z,16.70
2019-02-26T12:12:26.265Z,17.57
2019-02-26T12:14:54.599Z,17.98
2019-02-26T12:17:21.899Z,15.53
2019-02-26T12:19:51.477Z,16.75
2019-02-26T12:22:20.331Z,19.98
2019-02-26T12:24:47.824Z,14.68
2019-02-26T12:27:18.163Z,16.02
2019-02-26T12:29:47.835Z,18.32
2019-02-26T12:32:13.986Z,13.05
2019-02-26T12:34:44.584Z,14.18
2019-02-26T12:37:11.679Z,20.88
2019-02-26T12:39:39.061Z,15.10
2019-02-26T12:42:07.331Z,15.70
2019-02-26T12:44:37.996Z,13.20
2019-02-26T12:47:04.266Z,12.88
2019-02-26T12:49:33.285Z,12.03
2019-02-26T12:52:03.271Z,12.15
2019-02-26T12:54:31.277Z,14.43
2019-02-26T12:57:00.398Z,13.70
2019-02-26T12:59:27.393Z,16.00
2019-02-26T13:01:54.712Z,12.07
2019-02-26T13:04:24.916Z,13.70
2019-02-26T13:06:51.970Z,10.27
2019-02-26T13:09:19.365Z,10.03
2019-02-26T13:12:00.721Z,15.87
2019-02-26T13:14:15.600Z,12.00
2019-02-26T13:16:46.115Z,11.00
2019-02-26T13:19:11.863Z,14.20
2019-02-26T13:21:42.767Z,9.87
2019-02-26T13:24:12.375Z,7.27
2019-02-26T13:26:38.933Z,10.23
2019-02-26T13:29:05.995Z,10.60
2019-02-26T13:31:35.871Z,10.00
2019-02-26T13:34:02.325Z,6.70
2019-02-26T13:36:29.557Z,8.00
2019-02-26T13:38:56.842Z,8.23
2019-02-26T13:41:30.011Z,9.00
2019-02-26T13:43:53.115Z,7.85
2019-02-26T13:56:07.073Z,9.20
2019-02-26T14:01:01.006Z,7.67
2019-02-26T14:03:28.326Z,4.20
2019-02-26T14:05:55.615Z,3.33
2019-02-26T14:08:22.906Z,4.37
2019-02-26T14:10:50.213Z,5.90
2019-02-26T14:13:17.501Z,3.27
2019-02-26T14:15:44.861Z,4.83
2019-02-26T14:18:12.174Z,7.10
2019-02-26T14:20:39.462Z,6.47
2019-02-26T14:23:06.764Z,4.25
2019-02-26T14:25:34.061Z,7.90
2019-02-26T14:28:01.345Z,5.80
2019-02-26T14:30:28.858Z,12.70
2019-02-26T14:32:56.146Z,18.87
2019-02-26T14:35:23.454Z,6.70
2019-02-26T14:37:50.736Z,12.50
2019-02-26T14:40:18.704Z,5.93
2019-02-26T14:42:46.023Z,12.63
2019-02-26T14:45:14.937Z,19.83
2019-02-26T14:47:42.255Z,7.93
2019-02-26T14:50:11.174Z,12.30
2019-02-26T14:52:38.585Z,6.87
2019-02-26T14:55:06.650Z,6.83
2019-02-26T14:57:33.938Z,7.90
2019-02-26T15:00:01.254Z,10.00
2019-02-26T15:02:28.544Z,7.87
2019-02-26T15:04:57.074Z,10.87
2019-02-26T15:07:24.358Z,9.30
2019-02-26T15:09:51.648Z,9.20
2019-02-26T15:12:18.962Z,10.73
2019-02-26T15:14:48.722Z,7.80
2019-02-26T15:17:15.218Z,9.33
2019-02-26T15:19:49.638Z,7.20
2019-02-26T15:22:11.442Z,7.20
2019-02-26T15:24:38.764Z,10.33
2019-02-26T15:27:06.070Z,8.80
2019-02-26T15:29:33.389Z,6.60
2019-02-26T15:32:00.778Z,9.60
2019-02-26T15:34:28.057Z,7.13
2019-02-26T15:36:55.379Z,9.93
2019-02-26T15:39:22.686Z,7.40
2019-02-26T15:41:50.530Z,10.80
2019-02-26T15:44:17.864Z,5.75
2019-02-26T15:46:45.184Z,10.00
2019-02-26T15:49:12.490Z,7.10
2019-02-26T15:54:06.487Z,9.60
2019-02-26T15:56:33.796Z,8.63
2019-02-26T15:59:04.558Z,9.50
2019-02-26T16:01:30.238Z,11.47
2019-02-26T16:03:57.541Z,6.53
2019-02-26T16:06:24.839Z,6.60
2019-02-26T16:08:52.198Z,8.03
2019-02-26T16:11:19.480Z,14.25
2019-02-26T16:13:46.795Z,11.68
2019-02-26T16:16:14.108Z,9.50
2019-02-26T16:18:41.409Z,12.45
2019-02-26T16:21:08.715Z,15.38
2019-02-26T16:23:36.018Z,11.38
2019-02-26T16:26:03.354Z,12.50
2019-02-26T16:28:32.306Z,17.10
2019-02-26T16:30:59.607Z,11.25
2019-02-26T16:33:26.943Z,13.62
2019-02-26T16:35:57.620Z,19.95
2019-02-26T16:38:23.171Z,14.47
2019-02-26T16:40:50.601Z,15.13
2019-02-26T16:43:18.071Z,12.82
2019-02-26T16:45:45.404Z,17.73
2019-02-26T16:48:12.726Z,14.55
2019-02-26T16:50:40.022Z,17.50
2019-02-26T16:53:07.318Z,18.37
2019-02-26T16:55:34.639Z,27.32
2019-02-26T16:58:03.159Z,36.33
2019-02-26T17:00:30.925Z,65.65
2019-02-26T17:03:00.952Z,51.53
2019-02-26T17:05:27.445Z,40.70
2019-02-26T17:07:54.966Z,33.05
2019-02-26T17:10:22.756Z,22.75
2019-02-26T17:12:54.290Z,33.25
2019-02-26T17:15:25.495Z,60.80
2019-02-26T17:17:52.182Z,77.22
2019-02-26T17:20:19.538Z,47.08
2019-02-26T17:22:48.446Z,26.25
2019-02-26T17:25:15.761Z,21.10
2019-02-26T17:27:43.059Z,24.05
2019-02-26T17:30:11.441Z,28.27
2019-02-26T17:32:38.973Z,21.45
2019-02-26T17:35:07.332Z,26.97
2019-02-26T17:37:34.652Z,31.07
2019-02-26T17:40:03.275Z,25.97
2019-02-26T17:42:31.069Z,21.65
2019-02-26T17:44:58.371Z,18.10
2019-02-26T17:47:25.888Z,28.52
2019-02-26T17:49:53.222Z,15.32
2019-02-26T17:52:20.523Z,14.78
2019-02-26T17:54:49.258Z,12.00
2019-02-26T17:57:16.767Z,13.55
2019-02-26T17:59:44.067Z,42.25
2019-02-26T18:02:11.512Z,24.95
2019-02-26T18:04:38.783Z,24.40
2019-02-26T18:07:06.085Z,13.70
2019-02-26T18:09:34.547Z,14.85
2019-02-26T18:12:02.856Z,19.70
2019-02-26T18:14:30.093Z,12.07
2019-02-26T18:16:57.387Z,24.00
2019-02-26T18:19:24.745Z,25.35
2019-02-26T18:21:58.548Z,26.70
2019-02-26T18:24:25.833Z,18.92
2019-02-26T18:26:53.396Z,20.05
2019-02-26T18:29:21.202Z,16.42
2019-02-26T18:31:48.501Z,28.15
2019-02-26T18:34:15.814Z,11.43
2019-02-26T18:36:45.300Z,23.73
2019-02-26T18:39:12.086Z,16.20
2019-02-26T18:41:39.413Z,19.40
2019-02-26T18:44:06.781Z,37.00
2019-02-26T18:46:34.229Z,37.78
2019-02-26T18:49:01.670Z,24.63
2019-02-26T18:51:29.033Z,33.35
2019-02-26T18:53:56.326Z,31.42
2019-02-26T18:56:23.659Z,31.87
2019-02-26T18:58:51.853Z,36.33
2019-02-26T19:01:19.378Z,30.88
2019-02-26T19:03:46.734Z,19.55
2019-02-26T19:06:14.053Z,25.48
2019-02-26T19:08:41.349Z,16.37
2019-02-26T19:11:08.671Z,20.32
2019-02-26T19:13:36.300Z,23.85
2019-02-26T19:16:03.603Z,14.65
2019-02-26T19:18:30.913Z,18.35
2019-02-26T19:20:58.218Z,18.30
2019-02-26T19:23:25.534Z,18.15
2019-02-26T19:25:52.836Z,16.37
2019-02-26T19:28:20.171Z,13.40
2019-02-26T19:30:47.464Z,25.48
2019-02-26T19:33:14.773Z,22.98
2019-02-26T19:35:42.086Z,15.13
2019-02-26T19:38:09.378Z,18.10
2019-02-26T19:40:41.111Z,18.77
2019-02-26T19:43:08.418Z,26.40
2019-02-26T19:45:35.720Z,19.27
2019-02-26T19:48:03.030Z,19.23
2019-02-26T19:50:30.418Z,24.63
2019-02-26T19:53:02.263Z,19.32
2019-02-26T19:55:30.786Z,15.53
2019-02-26T19:57:58.109Z,17.02
2019-02-26T20:00:25.478Z,25.40
2019-02-26T20:02:52.818Z,16.77
2019-02-26T20:05:20.120Z,22.05
2019-02-26T20:07:47.460Z,21.33
2019-02-26T20:10:18.098Z,21.77
2019-02-26T20:12:45.403Z,24.30
2019-02-26T20:15:13.419Z,22.75
2019-02-26T20:17:40.783Z,19.98
2019-02-26T20:20:09.350Z,23.95
2019-02-26T20:22:36.666Z,17.73
2019-02-26T20:25:05.235Z,21.57
2019-02-26T20:27:32.555Z,24.35
2019-02-26T20:29:59.854Z,30.80
2019-02-26T20:32:30.891Z,27.73
2019-02-26T20:34:56.132Z,28.00
2019-02-26T20:37:24.320Z,28.02
2019-02-26T20:39:52.376Z,23.30
2019-02-26T20:42:19.727Z,22.62
2019-02-26T20:44:47.077Z,24.02
2019-02-26T20:47:14.400Z,29.77
2019-02-26T20:49:43.680Z,30.75
2019-02-26T20:52:10.656Z,32.25
2019-02-26T20:54:37.950Z,28.17
2019-02-26T20:57:05.346Z,37.17
2019-02-26T20:59:32.672Z,23.35
2019-02-26T21:01:59.983Z,23.73
2019-02-26T21:04:27.275Z,21.93
2019-02-26T21:06:54.599Z,21.35
2019-02-26T21:09:21.898Z,26.02
2019-02-26T21:11:49.204Z,26.57
2019-02-26T21:14:16.562Z,30.35
2019-02-26T21:16:43.892Z,18.23
2019-02-26T21:19:11.225Z,15.80
2019-02-26T21:21:38.567Z,19.42
2019-02-26T21:24:05.913Z,27.87
2019-02-26T21:26:33.297Z,27.77
2019-02-26T21:29:00.627Z,24.63
2019-02-26T21:31:28.028Z,27.98
2019-02-26T21:33:55.347Z,21.05
2019-02-26T21:36:22.653Z,19.98
2019-02-26T21:38:50.040Z,20.20
2019-02-26T21:41:17.349Z,25.82
2019-02-26T21:43:44.646Z,18.92
2019-02-26T21:46:11.961Z,24.12
2019-02-26T21:48:39.302Z,19.57
2019-02-26T21:51:06.908Z,17.95
2019-02-26T21:53:34.188Z,19.07
2019-02-26T21:56:01.517Z,19.02
2019-02-26T21:58:28.817Z,20.23
2019-02-26T22:00:56.122Z,20.55
2019-02-26T22:03:24.798Z,20.08
2019-02-26T22:05:52.483Z,19.75
2019-02-26T22:08:19.800Z,21.05
2019-02-26T22:10:47.105Z,17.90
2019-02-26T22:13:14.426Z,21.50
2019-02-26T22:15:42.092Z,17.67
2019-02-26T22:18:10.707Z,19.17
2019-02-26T22:20:38.018Z,19.40
2019-02-26T22:23:05.329Z,21.17
2019-02-26T22:25:32.642Z,18.48
2019-02-26T22:27:59.964Z,18.90
2019-02-26T22:30:27.280Z,20.55
2019-02-26T22:32:54.588Z,30.27
2019-02-26T22:35:25.614Z,25.02
2019-02-26T22:37:50.853Z,19.65
2019-02-26T22:40:18.177Z,20.43
2019-02-26T22:42:45.479Z,21.52
2019-02-26T22:45:13.943Z,23.52
2019-02-26T22:47:43.701Z,21.57
2019-02-26T22:50:11.367Z,21.23
2019-02-26T22:52:41.613Z,21.75
2019-02-26T22:55:09.889Z,19.80
2019-02-26T22:57:37.177Z,19.02
2019-02-26T23:00:06.199Z,18.00
2019-02-26T23:02:35.286Z,18.70
2019-02-26T23:05:02.628Z,17.85
2019-02-26T23:07:29.941Z,20.10
2019-02-26T23:09:57.529Z,20.62
2019-02-26T23:12:24.997Z,18.67
2019-02-26T23:14:52.669Z,18.87
2019-02-26T23:17:19.997Z,17.57
2019-02-26T23:19:47.292Z,19.32
2019-02-26T23:22:14.701Z,18.30
2019-02-26T23:24:42.210Z,21.35
2019-02-26T23:27:09.505Z,20.92
2019-02-26T23:29:38.089Z,18.87
2019-02-26T23:32:06.164Z,17.67
2019-02-26T23:34:34.089Z,19.23
2019-02-26T23:37:01.514Z,21.10
2019-02-26T23:39:28.953Z,20.52
2019-02-26T23:41:56.279Z,19.73
2019-02-26T23:44:23.598Z,19.17
2019-02-26T23:46:50.889Z,18.90
2019-02-26T23:49:18.206Z,18.40
2019-02-26T23:51:45.558Z,19.77
2019-02-26T23:54:12.880Z,18.25
2019-02-26T23:56:40.178Z,18.57
2019-02-26T23:59:07.499Z,19.75
